AirNav   Everest Fuels
 
 1590 users online  

FA95 Advent Health Lake Mary ER Heliport
Lake Mary, Florida, USA

GOING TO LAKE MARY?


FAA INFORMATION EFFECTIVE 05 DECEMBER 2019

Location

FAA Identifier: FA95
Lat/Long: 28-47-01.4600N 081-20-55.4200W
28-47.024333N 081-20.923667W
28.7837389,-81.3487278
(estimated)
Elevation: 68 ft. / 21 m (estimated)
From city: 2 miles NW of LAKE MARY, FL
Time zone: UTC -5 (UTC -4 during Daylight Saving Time)
Zip code: 32746

Heliport Operations

Heliport use: Private use. Permission required prior to landing
Activation date: 12/2016
Control tower: no
ARTCC: JACKSONVILLE CENTER
FSS: SAINT PETERSBURG FLIGHT SERVICE STATION
Attendance: 
Wind indicator: yes
Segmented circle: no

Heliport Communications

WX ASOS at SFB (6 nm E): PHONE 407-321-9384
WX ASOS at ORL (14 nm S): PHONE 407-658-6753
WX AWOS-3 at DED (17 nm N): 119.575 (386-740-5811)

Nearby radio navigation aids

VOR radial/distance  VOR name  Freq  Var
ORLr357/14.5ORLANDO VORTAC112.2000E
OMNr202/33.5ORMOND BEACH VORTAC112.6000E

Heliport Services

Runway Information

Helipad H1

Dimensions: 40 x 40 ft. / 12 x 12 m
Surface: concrete
Traffic pattern: leftleft

Heliport Ownership and Management from official FAA records

Ownership: Privately-owned
Owner: ADVENTIST HEALTH SYSTEM
900 WINDERTY PLACE SUITE 205
MAITLAND, FL 32751
Phone 407-303-1610
Manager: VICKIE TYSZKO
901 N LAKE DESTINY RD SUITE 301B
MAITLAND, FL 32751
Phone 407-303-8264

Additional Remarks

FOR CD CTC ORLANDO APCH AT 407-852-7553.

Instrument Procedures

There are no published instrument procedures at FA95.

Some nearby airports with instrument procedures:

KSFB - Orlando Sanford International Airport (6 nm E)
X04 - Orlando Apopka Airport (13 nm W)
KORL - Executive Airport (14 nm S)
KDED - DeLand Municipal Airport-Sidney H Taylor Field (17 nm N)
X23 - Umatilla Municipal Airport (18 nm NW)
 
Loc | Ops | Rwys | IFR | FBO | Links
Com | Nav | Svcs | Stats | Notes
Aerial photo
No photo
 
Airport distance calculator
Flying to Advent Health Lake Mary ER Heliport? Find the distance to fly.

From to FA95

Sunrise and sunset
Times for 05-Dec-2019
 Local
(UTC-5)
 Zulu
(UTC)
Morning civil twilight06:3911:39
Sunrise07:0512:05
Sunset17:2722:27
Evening civil twilight17:5322:53

Current date and time
Zulu (UTC)  05-Dec-2019 20:29:51
Local (UTC-5)  05-Dec-2019 15:29:51
 
METAR
KSFB 
7nm E 
051953Z 33004KT 10SM CLR 20/01 A3010 RMK AO2 SLP191 T02000011
KORL 
14nm S 
051953Z 35005KT 10SM CLR 21/M01 A3010 RMK AO2 SLP196 T02111011
KDED 
17nm N 
052015Z AUTO 35004KT 10SM CLR 20/02 A3010 RMK AO2
TAF
KSFB 
7nm E 
051735Z 0518/0618 01006KT P6SM SCT250 FM060000 VRB03KT P6SM SCT250 FM061700 21005KT P6SM FEW040
NOTAMs
Click for the latest NOTAMs
NOTAMs are issued by the DoD/FAA and will open in a separate window not controlled by AirNav.

 

 
 

Would you like to see your business listed on this page?

 If your business provides an interesting product or service to pilots, flight crews, aircraft, or users of the Advent Health Lake Mary ER Heliport, you should consider listing it here.  To start the listing process, click on the button below
 
Add a business
 

Other Pages about Advent Health Lake Mary ER Heliport

Update a link
 
Copyright © AirNav, LLC. All rights reserved. Privacy Policy  Contact